sensor_id;sensor_type;location;lat;lon;timestamp;temperature;humidity
11540;DHT22;5826;54.756;9.192;2024-03-02T00:00:57;7.30;99.90
11540;DHT22;5826;54.756;9.192;2024-03-02T00:03:23;7.30;99.90
11540;DHT22;5826;54.756;9.192;2024-03-02T00:05:50;7.30;99.90
11540;DHT22;5826;54.756;9.192;2024-03-02T00:08:23;7.40;99.90
11540;DHT22;5826;54.756;9.192;2024-03-02T00:10:49;7.40;99.90
11540;DHT22;5826;54.756;9.192;2024-03-02T00:13:15;7.40;99.90
11540;DHT22;5826;54.756;9.192;2024-03-02T00:15:48;7.40;99.90
11540;DHT22;5826;54.756;9.192;2024-03-02T00:18:19;7.40;99.90
11540;DHT22;5826;54.756;9.192;2024-03-02T00:20:45;7.40;99.90
11540;DHT22;5826;54.756;9.192;2024-03-02T00:23:16;7.40;99.90
11540;DHT22;5826;54.756;9.192;2024-03-02T00:25:48;7.40;99.90
11540;DHT22;5826;54.756;9.192;2024-03-02T00:28:17;7.40;99.90
11540;DHT22;5826;54.756;9.192;2024-03-02T00:30:58;7.50;99.90
11540;DHT22;5826;54.756;9.192;2024-03-02T00:33:26;7.50;99.90
11540;DHT22;5826;54.756;9.192;2024-03-02T00:35:53;7.50;99.90
11540;DHT22;5826;54.756;9.192;2024-03-02T00:38:19;7.50;99.90
11540;DHT22;5826;54.756;9.192;2024-03-02T00:40:45;7.50;99.90
11540;DHT22;5826;54.756;9.192;2024-03-02T00:46:12;7.50;99.90
11540;DHT22;5826;54.756;9.192;2024-03-02T00:48:39;7.50;99.90
11540;DHT22;5826;54.756;9.192;2024-03-02T00:51:04;7.50;99.90
11540;DHT22;5826;54.756;9.192;2024-03-02T00:53:31;7.50;99.90
11540;DHT22;5826;54.756;9.192;2024-03-02T00:55:57;7.50;99.90
11540;DHT22;5826;54.756;9.192;2024-03-02T00:58:24;7.50;99.90
11540;DHT22;5826;54.756;9.192;2024-03-02T01:00:50;7.50;99.90
11540;DHT22;5826;54.756;9.192;2024-03-02T01:03:15;7.50;99.90
11540;DHT22;5826;54.756;9.192;2024-03-02T01:05:42;7.50;99.90
11540;DHT22;5826;54.756;9.192;2024-03-02T01:08:08;7.50;99.90
11540;DHT22;5826;54.756;9.192;2024-03-02T01:10:34;7.60;99.90
11540;DHT22;5826;54.756;9.192;2024-03-02T01:12:59;7.50;99.90
11540;DHT22;5826;54.756;9.192;2024-03-02T01:15:25;7.60;99.90
11540;DHT22;5826;54.756;9.192;2024-03-02T01:17:50;7.60;99.90
11540;DHT22;5826;54.756;9.192;2024-03-02T01:20:16;7.50;99.90
11540;DHT22;5826;54.756;9.192;2024-03-02T01:22:41;7.50;99.90
11540;DHT22;5826;54.756;9.192;2024-03-02T01:25:08;7.60;99.90
11540;DHT22;5826;54.756;9.192;2024-03-02T01:27:34;7.60;99.90
11540;DHT22;5826;54.756;9.192;2024-03-02T01:29:59;7.60;99.90
11540;DHT22;5826;54.756;9.192;2024-03-02T01:32:25;7.60;99.90
11540;DHT22;5826;54.756;9.192;2024-03-02T01:34:50;7.60;99.90
11540;DHT22;5826;54.756;9.192;2024-03-02T01:37:16;7.60;99.90
11540;DHT22;5826;54.756;9.192;2024-03-02T01:39:41;7.60;99.90
11540;DHT22;5826;54.756;9.192;2024-03-02T01:42:07;7.60;99.90
11540;DHT22;5826;54.756;9.192;2024-03-02T01:44:32;7.70;99.90
11540;DHT22;5826;54.756;9.192;2024-03-02T01:46:58;7.70;99.90
11540;DHT22;5826;54.756;9.192;2024-03-02T01:49:24;7.70;99.90
11540;DHT22;5826;54.756;9.192;2024-03-02T01:51:49;7.60;99.90
11540;DHT22;5826;54.756;9.192;2024-03-02T01:54:15;7.70;99.90
11540;DHT22;5826;54.756;9.192;2024-03-02T01:56:40;7.70;99.90
11540;DHT22;5826;54.756;9.192;2024-03-02T01:59:06;7.70;99.90
11540;DHT22;5826;54.756;9.192;2024-03-02T02:01:32;7.70;99.90
11540;DHT22;5826;54.756;9.192;2024-03-02T02:03:57;7.70;99.90
11540;DHT22;5826;54.756;9.192;2024-03-02T02:06:23;7.70;99.90
11540;DHT22;5826;54.756;9.192;2024-03-02T02:08:48;7.80;99.90
11540;DHT22;5826;54.756;9.192;2024-03-02T02:11:15;7.80;99.90
11540;DHT22;5826;54.756;9.192;2024-03-02T02:13:41;7.80;99.90
11540;DHT22;5826;54.756;9.192;2024-03-02T02:16:07;7.80;99.90
11540;DHT22;5826;54.756;9.192;2024-03-02T02:18:33;7.80;99.90
11540;DHT22;5826;54.756;9.192;2024-03-02T02:20:59;7.80;99.90
11540;DHT22;5826;54.756;9.192;2024-03-02T02:23:24;7.80;99.90
11540;DHT22;5826;54.756;9.192;2024-03-02T02:25:50;7.80;99.90
11540;DHT22;5826;54.756;9.192;2024-03-02T02:28:15;7.70;99.90
11540;DHT22;5826;54.756;9.192;2024-03-02T02:30:41;7.70;99.90
11540;DHT22;5826;54.756;9.192;2024-03-02T02:33:06;7.70;99.90
11540;DHT22;5826;54.756;9.192;2024-03-02T02:35:32;7.70;99.90
11540;DHT22;5826;54.756;9.192;2024-03-02T02:37:58;7.70;99.90
11540;DHT22;5826;54.756;9.192;2024-03-02T02:40:26;7.70;99.90
11540;DHT22;5826;54.756;9.192;2024-03-02T02:42:54;7.70;99.90
11540;DHT22;5826;54.756;9.192;2024-03-02T02:45:20;7.70;99.90
11540;DHT22;5826;54.756;9.192;2024-03-02T02:47:45;7.70;99.90
11540;DHT22;5826;54.756;9.192;2024-03-02T02:50:11;7.70;99.90
11540;DHT22;5826;54.756;9.192;2024-03-02T02:52:39;7.70;99.90
11540;DHT22;5826;54.756;9.192;2024-03-02T02:55:07;7.70;99.90
11540;DHT22;5826;54.756;9.192;2024-03-02T02:57:33;7.80;99.90
11540;DHT22;5826;54.756;9.192;2024-03-02T03:00:08;7.80;99.90
11540;DHT22;5826;54.756;9.192;2024-03-02T03:02:38;7.80;99.90
11540;DHT22;5826;54.756;9.192;2024-03-02T03:05:05;7.80;99.90
11540;DHT22;5826;54.756;9.192;2024-03-02T03:07:31;7.80;99.90
11540;DHT22;5826;54.756;9.192;2024-03-02T03:09:57;7.80;99.90
11540;DHT22;5826;54.756;9.192;2024-03-02T03:12:22;7.80;99.90
11540;DHT22;5826;54.756;9.192;2024-03-02T03:14:48;7.90;99.90
11540;DHT22;5826;54.756;9.192;2024-03-02T03:17:13;7.80;99.90
11540;DHT22;5826;54.756;9.192;2024-03-02T03:19:39;7.90;99.90
11540;DHT22;5826;54.756;9.192;2024-03-02T03:22:04;7.90;99.90
11540;DHT22;5826;54.756;9.192;2024-03-02T03:24:30;7.90;99.90
11540;DHT22;5826;54.756;9.192;2024-03-02T03:26:55;7.90;99.90
11540;DHT22;5826;54.756;9.192;2024-03-02T03:29:21;7.90;99.90
11540;DHT22;5826;54.756;9.192;2024-03-02T03:31:46;7.90;99.90
11540;DHT22;5826;54.756;9.192;2024-03-02T03:34:12;7.90;99.90
11540;DHT22;5826;54.756;9.192;2024-03-02T03:36:41;7.90;99.90
11540;DHT22;5826;54.756;9.192;2024-03-02T03:39:07;7.90;99.90
11540;DHT22;5826;54.756;9.192;2024-03-02T03:41:32;7.90;99.90
11540;DHT22;5826;54.756;9.192;2024-03-02T03:43:58;7.90;99.90
11540;DHT22;5826;54.756;9.192;2024-03-02T03:46:23;7.90;99.90
11540;DHT22;5826;54.756;9.192;2024-03-02T03:48:49;7.90;99.90
11540;DHT22;5826;54.756;9.192;2024-03-02T03:51:14;7.90;99.90
11540;DHT22;5826;54.756;9.192;2024-03-02T03:53:40;7.90;99.90
11540;DHT22;5826;54.756;9.192;2024-03-02T03:56:05;7.90;99.90
11540;DHT22;5826;54.756;9.192;2024-03-02T03:58:31;7.90;99.90
11540;DHT22;5826;54.756;9.192;2024-03-02T04:00:57;7.90;99.90
11540;DHT22;5826;54.756;9.192;2024-03-02T04:03:22;7.90;99.90
11540;DHT22;5826;54.756;9.192;2024-03-02T04:05:48;7.90;99.90
11540;DHT22;5826;54.756;9.192;2024-03-02T04:08:13;7.90;99.90
11540;DHT22;5826;54.756;9.192;2024-03-02T04:10:39;7.90;99.90
11540;DHT22;5826;54.756;9.192;2024-03-02T04:13:05;7.90;99.90
11540;DHT22;5826;54.756;9.192;2024-03-02T04:15:31;7.90;99.90
11540;DHT22;5826;54.756;9.192;2024-03-02T04:17:56;7.90;99.90
11540;DHT22;5826;54.756;9.192;2024-03-02T04:20:22;8.00;99.90
11540;DHT22;5826;54.756;9.192;2024-03-02T04:22:47;7.90;99.90
11540;DHT22;5826;54.756;9.192;2024-03-02T04:25:13;7.90;99.90
11540;DHT22;5826;54.756;9.192;2024-03-02T04:27:38;7.90;99.90
11540;DHT22;5826;54.756;9.192;2024-03-02T04:30:05;7.90;99.90
11540;DHT22;5826;54.756;9.192;2024-03-02T04:32:30;7.90;99.90
11540;DHT22;5826;54.756;9.192;2024-03-02T04:34:56;7.90;99.90
11540;DHT22;5826;54.756;9.192;2024-03-02T04:37:22;7.90;99.90
11540;DHT22;5826;54.756;9.192;2024-03-02T04:39:48;7.90;99.90
11540;DHT22;5826;54.756;9.192;2024-03-02T04:42:13;7.90;99.90
11540;DHT22;5826;54.756;9.192;2024-03-02T04:44:39;7.90;99.90
11540;DHT22;5826;54.756;9.192;2024-03-02T04:47:04;7.90;99.90
11540;DHT22;5826;54.756;9.192;2024-03-02T04:49:30;7.90;99.90
11540;DHT22;5826;54.756;9.192;2024-03-02T04:51:56;7.80;99.90
11540;DHT22;5826;54.756;9.192;2024-03-02T04:54:22;7.80;99.90
11540;DHT22;5826;54.756;9.192;2024-03-02T04:56:48;7.80;99.90
11540;DHT22;5826;54.756;9.192;2024-03-02T04:59:17;7.80;99.90
11540;DHT22;5826;54.756;9.192;2024-03-02T05:01:43;7.80;99.90
11540;DHT22;5826;54.756;9.192;2024-03-02T05:04:09;7.80;99.90
11540;DHT22;5826;54.756;9.192;2024-03-02T05:06:39;7.80;99.90
11540;DHT22;5826;54.756;9.192;2024-03-02T05:09:06;7.80;99.90
11540;DHT22;5826;54.756;9.192;2024-03-02T05:11:32;7.80;99.90
11540;DHT22;5826;54.756;9.192;2024-03-02T05:14:03;7.90;99.90
11540;DHT22;5826;54.756;9.192;2024-03-02T05:16:29;7.90;99.90
11540;DHT22;5826;54.756;9.192;2024-03-02T05:18:57;7.80;99.90
11540;DHT22;5826;54.756;9.192;2024-03-02T05:21:23;7.80;99.90
11540;DHT22;5826;54.756;9.192;2024-03-02T05:23:49;7.80;99.90
11540;DHT22;5826;54.756;9.192;2024-03-02T05:26:15;7.80;99.90
11540;DHT22;5826;54.756;9.192;2024-03-02T05:28:40;7.90;99.90
11540;DHT22;5826;54.756;9.192;2024-03-02T05:31:06;7.90;99.90
11540;DHT22;5826;54.756;9.192;2024-03-02T05:33:32;7.80;99.90
11540;DHT22;5826;54.756;9.192;2024-03-02T05:35:58;7.80;99.90
11540;DHT22;5826;54.756;9.192;2024-03-02T05:38:24;7.90;99.90
11540;DHT22;5826;54.756;9.192;2024-03-02T05:40:49;7.90;99.90
11540;DHT22;5826;54.756;9.192;2024-03-02T05:43:15;7.80;99.90
11540;DHT22;5826;54.756;9.192;2024-03-02T05:45:40;7.90;99.90
11540;DHT22;5826;54.756;9.192;2024-03-02T05:48:07;7.80;99.90
11540;DHT22;5826;54.756;9.192;2024-03-02T05:50:33;7.80;99.90
11540;DHT22;5826;54.756;9.192;2024-03-02T05:52:58;7.90;99.90
11540;DHT22;5826;54.756;9.192;2024-03-02T05:55:24;7.90;99.90
11540;DHT22;5826;54.756;9.192;2024-03-02T05:57:50;7.90;99.90
11540;DHT22;5826;54.756;9.192;2024-03-02T06:00:41;7.90;99.90
11540;DHT22;5826;54.756;9.192;2024-03-02T06:03:07;7.90;99.90
11540;DHT22;5826;54.756;9.192;2024-03-02T06:05:34;7.90;99.90
11540;DHT22;5826;54.756;9.192;2024-03-02T06:08:00;7.90;99.90
11540;DHT22;5826;54.756;9.192;2024-03-02T06:10:25;7.90;99.90
11540;DHT22;5826;54.756;9.192;2024-03-02T06:12:51;7.90;99.90
11540;DHT22;5826;54.756;9.192;2024-03-02T06:15:16;7.90;99.90
11540;DHT22;5826;54.756;9.192;2024-03-02T06:17:42;7.90;99.90
11540;DHT22;5826;54.756;9.192;2024-03-02T06:20:08;7.90;99.90
11540;DHT22;5826;54.756;9.192;2024-03-02T06:22:34;7.80;99.90
11540;DHT22;5826;54.756;9.192;2024-03-02T06:25:00;7.90;99.90
11540;DHT22;5826;54.756;9.192;2024-03-02T06:27:25;7.90;99.90
11540;DHT22;5826;54.756;9.192;2024-03-02T06:29:51;7.90;99.90
11540;DHT22;5826;54.756;9.192;2024-03-02T06:32:17;7.90;99.90
11540;DHT22;5826;54.756;9.192;2024-03-02T06:34:42;7.90;99.90
11540;DHT22;5826;54.756;9.192;2024-03-02T06:37:08;7.90;99.90
11540;DHT22;5826;54.756;9.192;2024-03-02T06:39:33;7.90;99.90
11540;DHT22;5826;54.756;9.192;2024-03-02T06:42:02;8.00;99.90
11540;DHT22;5826;54.756;9.192;2024-03-02T06:44:28;8.00;99.90
11540;DHT22;5826;54.756;9.192;2024-03-02T06:46:53;8.00;99.90
11540;DHT22;5826;54.756;9.192;2024-03-02T06:49:19;8.00;99.90
11540;DHT22;5826;54.756;9.192;2024-03-02T06:51:44;8.00;99.90
11540;DHT22;5826;54.756;9.192;2024-03-02T06:54:10;8.10;99.90
11540;DHT22;5826;54.756;9.192;2024-03-02T06:56:35;8.10;99.90
11540;DHT22;5826;54.756;9.192;2024-03-02T06:59:01;8.10;99.90
11540;DHT22;5826;54.756;9.192;2024-03-02T07:01:26;8.10;99.90
11540;DHT22;5826;54.756;9.192;2024-03-02T07:03:53;8.10;99.90
11540;DHT22;5826;54.756;9.192;2024-03-02T07:06:18;8.20;99.90
11540;DHT22;5826;54.756;9.192;2024-03-02T07:08:44;8.20;99.90
11540;DHT22;5826;54.756;9.192;2024-03-02T07:11:09;8.20;99.90
11540;DHT22;5826;54.756;9.192;2024-03-02T07:13:35;8.20;99.90
11540;DHT22;5826;54.756;9.192;2024-03-02T07:16:00;8.20;99.90
11540;DHT22;5826;54.756;9.192;2024-03-02T07:18:32;8.20;99.90
11540;DHT22;5826;54.756;9.192;2024-03-02T07:20:59;8.30;99.90
11540;DHT22;5826;54.756;9.192;2024-03-02T07:23:29;8.20;99.90
11540;DHT22;5826;54.756;9.192;2024-03-02T07:25:56;8.30;99.90
11540;DHT22;5826;54.756;9.192;2024-03-02T07:28:22;8.30;99.90
11540;DHT22;5826;54.756;9.192;2024-03-02T07:30:58;8.30;99.90
11540;DHT22;5826;54.756;9.192;2024-03-02T07:33:24;8.30;99.90
11540;DHT22;5826;54.756;9.192;2024-03-02T07:35:49;8.30;99.90
11540;DHT22;5826;54.756;9.192;2024-03-02T07:38:15;8.30;99.90
11540;DHT22;5826;54.756;9.192;2024-03-02T07:40:40;8.30;99.90
11540;DHT22;5826;54.756;9.192;2024-03-02T07:43:06;8.40;99.90
11540;DHT22;5826;54.756;9.192;2024-03-02T07:45:31;8.40;99.90
11540;DHT22;5826;54.756;9.192;2024-03-02T07:47:57;8.40;99.90
11540;DHT22;5826;54.756;9.192;2024-03-02T07:50:23;8.40;99.90
11540;DHT22;5826;54.756;9.192;2024-03-02T07:52:48;8.40;99.90
11540;DHT22;5826;54.756;9.192;2024-03-02T07:55:14;8.50;99.90
11540;DHT22;5826;54.756;9.192;2024-03-02T07:57:40;8.60;99.90
11540;DHT22;5826;54.756;9.192;2024-03-02T08:00:06;8.60;99.90
11540;DHT22;5826;54.756;9.192;2024-03-02T08:02:31;8.70;99.90
11540;DHT22;5826;54.756;9.192;2024-03-02T08:04:57;8.80;99.90
11540;DHT22;5826;54.756;9.192;2024-03-02T08:07:23;8.90;99.90
11540;DHT22;5826;54.756;9.192;2024-03-02T08:09:48;9.00;99.90
11540;DHT22;5826;54.756;9.192;2024-03-02T08:12:14;9.10;99.90
11540;DHT22;5826;54.756;9.192;2024-03-02T08:14:39;9.20;99.90
11540;DHT22;5826;54.756;9.192;2024-03-02T08:17:05;9.30;99.90
11540;DHT22;5826;54.756;9.192;2024-03-02T08:19:35;9.40;99.90
11540;DHT22;5826;54.756;9.192;2024-03-02T08:22:00;9.40;99.90
11540;DHT22;5826;54.756;9.192;2024-03-02T08:24:26;9.50;99.90
11540;DHT22;5826;54.756;9.192;2024-03-02T08:26:51;9.50;99.90
11540;DHT22;5826;54.756;9.192;2024-03-02T08:29:17;9.50;99.90
11540;DHT22;5826;54.756;9.192;2024-03-02T08:31:42;9.50;99.90
11540;DHT22;5826;54.756;9.192;2024-03-02T08:34:08;9.50;99.90
11540;DHT22;5826;54.756;9.192;2024-03-02T08:36:34;9.60;99.90
11540;DHT22;5826;54.756;9.192;2024-03-02T08:39:00;9.60;99.90
11540;DHT22;5826;54.756;9.192;2024-03-02T08:41:25;9.60;99.90
11540;DHT22;5826;54.756;9.192;2024-03-02T08:43:51;9.70;99.90
11540;DHT22;5826;54.756;9.192;2024-03-02T08:46:16;9.80;99.90
11540;DHT22;5826;54.756;9.192;2024-03-02T08:48:42;9.90;99.90
11540;DHT22;5826;54.756;9.192;2024-03-02T08:51:07;10.00;99.90
11540;DHT22;5826;54.756;9.192;2024-03-02T08:53:35;10.00;99.90
11540;DHT22;5826;54.756;9.192;2024-03-02T08:56:01;10.10;99.90
11540;DHT22;5826;54.756;9.192;2024-03-02T08:58:26;10.20;99.90
11540;DHT22;5826;54.756;9.192;2024-03-02T09:00:52;10.30;99.90
11540;DHT22;5826;54.756;9.192;2024-03-02T09:03:18;10.40;99.90
11540;DHT22;5826;54.756;9.192;2024-03-02T09:05:43;10.50;99.90
11540;DHT22;5826;54.756;9.192;2024-03-02T09:08:09;10.50;99.90
11540;DHT22;5826;54.756;9.192;2024-03-02T09:10:34;10.60;99.90
11540;DHT22;5826;54.756;9.192;2024-03-02T09:13:00;10.70;99.90
11540;DHT22;5826;54.756;9.192;2024-03-02T09:15:25;10.80;99.90
11540;DHT22;5826;54.756;9.192;2024-03-02T09:17:51;10.80;99.90
11540;DHT22;5826;54.756;9.192;2024-03-02T09:20:16;10.90;99.90
11540;DHT22;5826;54.756;9.192;2024-03-02T09:22:42;10.90;99.90
11540;DHT22;5826;54.756;9.192;2024-03-02T09:25:08;11.00;99.90
11540;DHT22;5826;54.756;9.192;2024-03-02T09:27:36;11.00;99.90
11540;DHT22;5826;54.756;9.192;2024-03-02T09:30:02;11.10;99.90
11540;DHT22;5826;54.756;9.192;2024-03-02T09:32:28;11.20;99.90
11540;DHT22;5826;54.756;9.192;2024-03-02T09:34:53;11.20;99.90
11540;DHT22;5826;54.756;9.192;2024-03-02T09:37:21;11.20;99.90
11540;DHT22;5826;54.756;9.192;2024-03-02T09:39:46;11.30;99.90
11540;DHT22;5826;54.756;9.192;2024-03-02T09:42:12;11.40;99.90
11540;DHT22;5826;54.756;9.192;2024-03-02T09:44:38;11.40;99.90
11540;DHT22;5826;54.756;9.192;2024-03-02T09:47:04;11.50;99.90
11540;DHT22;5826;54.756;9.192;2024-03-02T09:49:31;11.50;99.90
11540;DHT22;5826;54.756;9.192;2024-03-02T09:51:56;11.60;99.90
11540;DHT22;5826;54.756;9.192;2024-03-02T09:54:22;11.60;99.90
11540;DHT22;5826;54.756;9.192;2024-03-02T09:56:48;11.60;99.90
11540;DHT22;5826;54.756;9.192;2024-03-02T09:59:14;11.70;99.90
11540;DHT22;5826;54.756;9.192;2024-03-02T10:01:56;11.60;99.90
11540;DHT22;5826;54.756;9.192;2024-03-02T10:04:24;11.60;99.90
11540;DHT22;5826;54.756;9.192;2024-03-02T10:06:50;11.60;99.90
11540;DHT22;5826;54.756;9.192;2024-03-02T10:09:27;11.50;99.90
11540;DHT22;5826;54.756;9.192;2024-03-02T10:11:53;11.60;99.90
11540;DHT22;5826;54.756;9.192;2024-03-02T10:14:19;11.60;99.90
11540;DHT22;5826;54.756;9.192;2024-03-02T10:16:45;11.70;99.90
11540;DHT22;5826;54.756;9.192;2024-03-02T10:19:18;11.70;99.90
11540;DHT22;5826;54.756;9.192;2024-03-02T10:21:45;11.70;99.90
11540;DHT22;5826;54.756;9.192;2024-03-02T10:24:11;11.70;99.90
11540;DHT22;5826;54.756;9.192;2024-03-02T10:26:38;11.70;99.90
11540;DHT22;5826;54.756;9.192;2024-03-02T10:29:03;11.80;99.90
11540;DHT22;5826;54.756;9.192;2024-03-02T10:31:29;11.90;99.90
11540;DHT22;5826;54.756;9.192;2024-03-02T10:33:55;11.90;99.90
11540;DHT22;5826;54.756;9.192;2024-03-02T10:36:20;12.00;99.90
11540;DHT22;5826;54.756;9.192;2024-03-02T10:38:46;12.00;99.90
11540;DHT22;5826;54.756;9.192;2024-03-02T10:41:17;12.10;99.90
11540;DHT22;5826;54.756;9.192;2024-03-02T10:43:43;12.10;99.90
11540;DHT22;5826;54.756;9.192;2024-03-02T10:46:10;12.20;99.90
11540;DHT22;5826;54.756;9.192;2024-03-02T10:48:36;12.20;99.90
11540;DHT22;5826;54.756;9.192;2024-03-02T10:51:04;12.20;99.90
11540;DHT22;5826;54.756;9.192;2024-03-02T10:53:30;12.70;99.90
11540;DHT22;5826;54.756;9.192;2024-03-02T10:55:58;12.40;99.90
11540;DHT22;5826;54.756;9.192;2024-03-02T10:58:32;12.50;99.90
11540;DHT22;5826;54.756;9.192;2024-03-02T11:01:02;12.60;99.90
11540;DHT22;5826;54.756;9.192;2024-03-02T11:03:30;12.60;99.90
11540;DHT22;5826;54.756;9.192;2024-03-02T11:05:59;12.60;99.90
11540;DHT22;5826;54.756;9.192;2024-03-02T11:08:27;12.60;99.90
11540;DHT22;5826;54.756;9.192;2024-03-02T11:10:58;12.60;99.90
11540;DHT22;5826;54.756;9.192;2024-03-02T11:13:31;12.60;99.90
11540;DHT22;5826;54.756;9.192;2024-03-02T11:16:03;12.70;99.90
11540;DHT22;5826;54.756;9.192;2024-03-02T11:18:29;12.70;99.90
11540;DHT22;5826;54.756;9.192;2024-03-02T11:20:56;12.70;99.90
11540;DHT22;5826;54.756;9.192;2024-03-02T11:23:32;12.80;99.90
11540;DHT22;5826;54.756;9.192;2024-03-02T11:26:18;12.80;99.90
11540;DHT22;5826;54.756;9.192;2024-03-02T11:28:44;12.90;99.90
11540;DHT22;5826;54.756;9.192;2024-03-02T11:31:09;13.00;99.90
11540;DHT22;5826;54.756;9.192;2024-03-02T11:33:35;13.00;99.90
11540;DHT22;5826;54.756;9.192;2024-03-02T11:36:00;13.00;99.90
11540;DHT22;5826;54.756;9.192;2024-03-02T11:38:31;13.10;99.90
11540;DHT22;5826;54.756;9.192;2024-03-02T11:40:59;13.20;99.90
11540;DHT22;5826;54.756;9.192;2024-03-02T11:43:27;13.30;99.90
11540;DHT22;5826;54.756;9.192;2024-03-02T11:46:04;13.40;99.90
11540;DHT22;5826;54.756;9.192;2024-03-02T11:48:32;13.40;99.90
11540;DHT22;5826;54.756;9.192;2024-03-02T11:50:59;13.40;99.90
11540;DHT22;5826;54.756;9.192;2024-03-02T11:53:27;13.50;99.90
11540;DHT22;5826;54.756;9.192;2024-03-02T11:55:55;13.70;99.90
11540;DHT22;5826;54.756;9.192;2024-03-02T11:58:21;13.80;99.90
11540;DHT22;5826;54.756;9.192;2024-03-02T12:00:55;13.80;99.90
11540;DHT22;5826;54.756;9.192;2024-03-02T12:03:25;13.90;99.90
11540;DHT22;5826;54.756;9.192;2024-03-02T12:05:53;14.00;99.90
11540;DHT22;5826;54.756;9.192;2024-03-02T12:08:19;14.10;99.90
11540;DHT22;5826;54.756;9.192;2024-03-02T12:10:59;14.20;99.90
11540;DHT22;5826;54.756;9.192;2024-03-02T12:13:25;14.30;99.90
11540;DHT22;5826;54.756;9.192;2024-03-02T12:15:53;14.40;99.90
11540;DHT22;5826;54.756;9.192;2024-03-02T12:18:20;14.40;99.90
11540;DHT22;5826;54.756;9.192;2024-03-02T12:20:46;14.30;99.90
11540;DHT22;5826;54.756;9.192;2024-03-02T12:23:13;14.30;99.90
11540;DHT22;5826;54.756;9.192;2024-03-02T12:25:39;14.40;99.90
11540;DHT22;5826;54.756;9.192;2024-03-02T12:28:05;14.60;99.90
11540;DHT22;5826;54.756;9.192;2024-03-02T12:30:34;14.70;99.90
11540;DHT22;5826;54.756;9.192;2024-03-02T12:33:00;14.80;99.90
11540;DHT22;5826;54.756;9.192;2024-03-02T12:35:26;15.00;99.90
11540;DHT22;5826;54.756;9.192;2024-03-02T12:37:53;15.20;99.90
11540;DHT22;5826;54.756;9.192;2024-03-02T12:40:19;15.40;99.90
11540;DHT22;5826;54.756;9.192;2024-03-02T12:42:46;15.50;99.90
11540;DHT22;5826;54.756;9.192;2024-03-02T12:45:13;15.60;99.90
11540;DHT22;5826;54.756;9.192;2024-03-02T12:47:42;15.80;99.40
11540;DHT22;5826;54.756;9.192;2024-03-02T12:50:08;15.80;98.20
11540;DHT22;5826;54.756;9.192;2024-03-02T12:52:35;15.70;99.60
11540;DHT22;5826;54.756;9.192;2024-03-02T12:55:02;15.80;97.80
11540;DHT22;5826;54.756;9.192;2024-03-02T12:57:30;16.10;99.20
11540;DHT22;5826;54.756;9.192;2024-03-02T13:00:06;16.40;98.40
11540;DHT22;5826;54.756;9.192;2024-03-02T13:02:36;16.30;96.10
11540;DHT22;5826;54.756;9.192;2024-03-02T13:05:02;16.30;98.10
11540;DHT22;5826;54.756;9.192;2024-03-02T13:07:28;16.60;98.30
11540;DHT22;5826;54.756;9.192;2024-03-02T13:09:55;16.90;98.40
11540;DHT22;5826;54.756;9.192;2024-03-02T13:12:22;17.40;98.10
11540;DHT22;5826;54.756;9.192;2024-03-02T13:14:51;17.80;96.90
11540;DHT22;5826;54.756;9.192;2024-03-02T13:17:18;18.10;96.60
11540;DHT22;5826;54.756;9.192;2024-03-02T13:19:53;18.30;96.40
11540;DHT22;5826;54.756;9.192;2024-03-02T13:22:19;18.40;94.90
11540;DHT22;5826;54.756;9.192;2024-03-02T13:24:45;18.60;94.80
11540;DHT22;5826;54.756;9.192;2024-03-02T13:27:10;18.80;95.30
11540;DHT22;5826;54.756;9.192;2024-03-02T13:29:36;19.20;94.50
11540;DHT22;5826;54.756;9.192;2024-03-02T13:32:02;19.30;93.60
11540;DHT22;5826;54.756;9.192;2024-03-02T13:34:28;19.60;93.80
11540;DHT22;5826;54.756;9.192;2024-03-02T13:36:53;20.60;92.20
11540;DHT22;5826;54.756;9.192;2024-03-02T13:39:19;22.20;87.50
11540;DHT22;5826;54.756;9.192;2024-03-02T13:41:44;23.70;81.00
11540;DHT22;5826;54.756;9.192;2024-03-02T13:44:18;25.50;71.30
11540;DHT22;5826;54.756;9.192;2024-03-02T13:46:43;27.00;64.00
11540;DHT22;5826;54.756;9.192;2024-03-02T13:49:11;28.10;66.00
11540;DHT22;5826;54.756;9.192;2024-03-02T13:51:37;28.60;67.00
11540;DHT22;5826;54.756;9.192;2024-03-02T13:54:02;28.90;66.20
11540;DHT22;5826;54.756;9.192;2024-03-02T13:56:29;28.50;77.10
11540;DHT22;5826;54.756;9.192;2024-03-02T13:58:54;28.20;83.70
11540;DHT22;5826;54.756;9.192;2024-03-02T14:01:20;27.40;81.70
11540;DHT22;5826;54.756;9.192;2024-03-02T14:03:45;26.20;93.00
11540;DHT22;5826;54.756;9.192;2024-03-02T14:06:12;25.30;96.10
11540;DHT22;5826;54.756;9.192;2024-03-02T14:08:37;24.60;96.70
11540;DHT22;5826;54.756;9.192;2024-03-02T14:11:03;24.30;99.70
11540;DHT22;5826;54.756;9.192;2024-03-02T14:13:28;24.30;99.70
11540;DHT22;5826;54.756;9.192;2024-03-02T14:15:54;24.60;99.10
11540;DHT22;5826;54.756;9.192;2024-03-02T14:18:20;25.20;99.90
11540;DHT22;5826;54.756;9.192;2024-03-02T14:20:46;26.00;99.20
11540;DHT22;5826;54.756;9.192;2024-03-02T14:23:20;26.60;96.60
11540;DHT22;5826;54.756;9.192;2024-03-02T14:25:46;28.00;89.30
11540;DHT22;5826;54.756;9.192;2024-03-02T14:28:11;29.80;70.20
11540;DHT22;5826;54.756;9.192;2024-03-02T14:30:37;31.80;70.90
11540;DHT22;5826;54.756;9.192;2024-03-02T14:33:03;33.10;65.50
11540;DHT22;5826;54.756;9.192;2024-03-02T14:35:28;34.60;47.40
11540;DHT22;5826;54.756;9.192;2024-03-02T14:37:54;35.90;41.80
11540;DHT22;5826;54.756;9.192;2024-03-02T14:40:20;37.00;51.80
11540;DHT22;5826;54.756;9.192;2024-03-02T14:42:47;37.90;46.80
11540;DHT22;5826;54.756;9.192;2024-03-02T14:45:13;38.30;42.50
11540;DHT22;5826;54.756;9.192;2024-03-02T14:47:39;38.70;40.90
11540;DHT22;5826;54.756;9.192;2024-03-02T14:50:05;39.10;39.10
11540;DHT22;5826;54.756;9.192;2024-03-02T14:52:32;39.30;43.50
11540;DHT22;5826;54.756;9.192;2024-03-02T14:54:57;39.60;44.60
11540;DHT22;5826;54.756;9.192;2024-03-02T14:57:23;39.60;46.20
11540;DHT22;5826;54.756;9.192;2024-03-02T14:59:48;39.80;40.70
11540;DHT22;5826;54.756;9.192;2024-03-02T15:02:14;39.90;45.70
11540;DHT22;5826;54.756;9.192;2024-03-02T15:04:39;39.90;41.20
11540;DHT22;5826;54.756;9.192;2024-03-02T15:07:05;40.20;42.90
11540;DHT22;5826;54.756;9.192;2024-03-02T15:09:30;39.80;43.80
11540;DHT22;5826;54.756;9.192;2024-03-02T15:11:56;39.90;46.80
11540;DHT22;5826;54.756;9.192;2024-03-02T15:14:21;40.10;44.30
11540;DHT22;5826;54.756;9.192;2024-03-02T15:16:47;40.10;47.80
11540;DHT22;5826;54.756;9.192;2024-03-02T15:19:13;39.90;49.50
11540;DHT22;5826;54.756;9.192;2024-03-02T15:21:39;39.80;51.50
11540;DHT22;5826;54.756;9.192;2024-03-02T15:24:05;39.30;50.10
11540;DHT22;5826;54.756;9.192;2024-03-02T15:26:30;38.80;53.80
11540;DHT22;5826;54.756;9.192;2024-03-02T15:28:56;38.40;52.60
11540;DHT22;5826;54.756;9.192;2024-03-02T15:31:24;37.90;60.10
11540;DHT22;5826;54.756;9.192;2024-03-02T15:33:50;37.40;60.40
11540;DHT22;5826;54.756;9.192;2024-03-02T15:36:16;36.70;64.70
11540;DHT22;5826;54.756;9.192;2024-03-02T15:38:42;36.10;68.20
11540;DHT22;5826;54.756;9.192;2024-03-02T15:41:07;35.70;68.10
11540;DHT22;5826;54.756;9.192;2024-03-02T15:43:33;35.40;63.80
11540;DHT22;5826;54.756;9.192;2024-03-02T15:46:01;35.10;68.60
11540;DHT22;5826;54.756;9.192;2024-03-02T15:48:27;34.80;70.20
11540;DHT22;5826;54.756;9.192;2024-03-02T15:50:53;34.60;72.30
11540;DHT22;5826;54.756;9.192;2024-03-02T15:53:19;34.40;71.50